sensor_id;sensor_type;location;lat;lon;timestamp;P1;durP1;ratioP1;P2;durP2;ratioP2
19161;SDS011;9713;48.140;11.530;2023-02-26T00:00:32;4.73;;;1.90;;
19161;SDS011;9713;48.140;11.530;2023-02-26T00:04:15;2.57;;;1.67;;
19161;SDS011;9713;48.140;11.530;2023-02-26T00:07:57;3.10;;;1.93;;
19161;SDS011;9713;48.140;11.530;2023-02-26T00:11:42;4.37;;;2.50;;
19161;SDS011;9713;48.140;11.530;2023-02-26T00:15:25;5.10;;;3.10;;
19161;SDS011;9713;48.140;11.530;2023-02-26T00:19:09;4.10;;;2.80;;
19161;SDS011;9713;48.140;11.530;2023-02-26T00:22:53;3.23;;;2.33;;
19161;SDS011;9713;48.140;11.530;2023-02-26T00:26:36;5.10;;;2.40;;
19161;SDS011;9713;48.140;11.530;2023-02-26T00:30:23;4.03;;;2.50;;
19161;SDS011;9713;48.140;11.530;2023-02-26T00:34:09;4.40;;;2.70;;
19161;SDS011;9713;48.140;11.530;2023-02-26T00:37:57;6.73;;;2.50;;
19161;SDS011;9713;48.140;11.530;2023-02-26T00:41:41;4.20;;;2.70;;
19161;SDS011;9713;48.140;11.530;2023-02-26T00:45:26;3.77;;;2.23;;
19161;SDS011;9713;48.140;11.530;2023-02-26T00:49:12;4.67;;;2.37;;
19161;SDS011;9713;48.140;11.530;2023-02-26T00:53:01;3.10;;;2.23;;
19161;SDS011;9713;48.140;11.530;2023-02-26T00:56:48;4.43;;;2.23;;
19161;SDS011;9713;48.140;11.530;2023-02-26T01:00:32;3.50;;;2.33;;
19161;SDS011;9713;48.140;11.530;2023-02-26T01:04:16;2.73;;;1.90;;
19161;SDS011;9713;48.140;11.530;2023-02-26T01:08:03;2.70;;;1.83;;
19161;SDS011;9713;48.140;11.530;2023-02-26T01:11:47;2.97;;;2.00;;
19161;SDS011;9713;48.140;11.530;2023-02-26T01:15:31;2.30;;;1.83;;
19161;SDS011;9713;48.140;11.530;2023-02-26T01:19:17;3.63;;;1.70;;
19161;SDS011;9713;48.140;11.530;2023-02-26T01:23:04;2.93;;;2.00;;
19161;SDS011;9713;48.140;11.530;2023-02-26T01:26:49;2.73;;;1.87;;
19161;SDS011;9713;48.140;11.530;2023-02-26T01:30:33;3.97;;;2.60;;
19161;SDS011;9713;48.140;11.530;2023-02-26T01:34:17;6.47;;;2.00;;
19161;SDS011;9713;48.140;11.530;2023-02-26T01:38:03;2.30;;;1.70;;
19161;SDS011;9713;48.140;11.530;2023-02-26T01:41:52;2.93;;;1.80;;
19161;SDS011;9713;48.140;11.530;2023-02-26T01:45:51;3.57;;;1.93;;
19161;SDS011;9713;48.140;11.530;2023-02-26T01:49:38;3.20;;;1.80;;
19161;SDS011;9713;48.140;11.530;2023-02-26T01:53:22;3.50;;;1.80;;
19161;SDS011;9713;48.140;11.530;2023-02-26T01:57:06;2.83;;;2.10;;
19161;SDS011;9713;48.140;11.530;2023-02-26T02:00:51;3.97;;;2.00;;
19161;SDS011;9713;48.140;11.530;2023-02-26T02:04:34;5.07;;;1.80;;
19161;SDS011;9713;48.140;11.530;2023-02-26T02:08:18;2.30;;;1.67;;
19161;SDS011;9713;48.140;11.530;2023-02-26T02:12:10;4.77;;;2.00;;
19161;SDS011;9713;48.140;11.530;2023-02-26T02:16:06;2.37;;;1.60;;
19161;SDS011;9713;48.140;11.530;2023-02-26T02:24:12;3.17;;;1.93;;
19161;SDS011;9713;48.140;11.530;2023-02-26T02:27:57;2.83;;;1.87;;
19161;SDS011;9713;48.140;11.530;2023-02-26T02:31:48;4.00;;;1.60;;
19161;SDS011;9713;48.140;11.530;2023-02-26T02:35:35;3.27;;;1.93;;
19161;SDS011;9713;48.140;11.530;2023-02-26T02:39:22;5.60;;;2.90;;
19161;SDS011;9713;48.140;11.530;2023-02-26T02:43:09;6.80;;;2.63;;
19161;SDS011;9713;48.140;11.530;2023-02-26T02:46:56;4.57;;;2.50;;
19161;SDS011;9713;48.140;11.530;2023-02-26T02:50:41;4.03;;;2.30;;
19161;SDS011;9713;48.140;11.530;2023-02-26T02:54:34;5.10;;;2.27;;
19161;SDS011;9713;48.140;11.530;2023-02-26T02:58:20;9.00;;;3.47;;
19161;SDS011;9713;48.140;11.530;2023-02-26T03:02:06;4.73;;;2.00;;
19161;SDS011;9713;48.140;11.530;2023-02-26T03:05:53;3.70;;;1.80;;
19161;SDS011;9713;48.140;11.530;2023-02-26T03:09:35;3.30;;;1.50;;
19161;SDS011;9713;48.140;11.530;2023-02-26T03:13:19;4.60;;;1.77;;
19161;SDS011;9713;48.140;11.530;2023-02-26T03:17:10;5.13;;;1.77;;
19161;SDS011;9713;48.140;11.530;2023-02-26T03:21:02;3.23;;;1.50;;
19161;SDS011;9713;48.140;11.530;2023-02-26T03:24:49;2.53;;;1.30;;
19161;SDS011;9713;48.140;11.530;2023-02-26T03:28:35;3.67;;;1.30;;
19161;SDS011;9713;48.140;11.530;2023-02-26T03:32:25;3.87;;;1.30;;
19161;SDS011;9713;48.140;11.530;2023-02-26T03:36:12;6.23;;;1.90;;
19161;SDS011;9713;48.140;11.530;2023-02-26T03:40:02;6.07;;;1.60;;
19161;SDS011;9713;48.140;11.530;2023-02-26T03:43:50;4.07;;;1.40;;
19161;SDS011;9713;48.140;11.530;2023-02-26T03:47:37;2.03;;;1.40;;
19161;SDS011;9713;48.140;11.530;2023-02-26T03:51:22;4.87;;;1.50;;
19161;SDS011;9713;48.140;11.530;2023-02-26T03:55:07;8.40;;;2.60;;
19161;SDS011;9713;48.140;11.530;2023-02-26T03:58:52;3.57;;;1.60;;
19161;SDS011;9713;48.140;11.530;2023-02-26T04:02:37;4.10;;;1.83;;
19161;SDS011;9713;48.140;11.530;2023-02-26T04:06:24;3.63;;;1.60;;
19161;SDS011;9713;48.140;11.530;2023-02-26T04:10:08;7.67;;;1.83;;
19161;SDS011;9713;48.140;11.530;2023-02-26T04:13:51;3.70;;;2.03;;
19161;SDS011;9713;48.140;11.530;2023-02-26T04:17:34;4.57;;;1.90;;
19161;SDS011;9713;48.140;11.530;2023-02-26T04:21:19;2.60;;;1.60;;
19161;SDS011;9713;48.140;11.530;2023-02-26T04:25:03;2.80;;;1.97;;
19161;SDS011;9713;48.140;11.530;2023-02-26T04:28:46;5.93;;;2.10;;
19161;SDS011;9713;48.140;11.530;2023-02-26T04:32:29;2.97;;;1.60;;
19161;SDS011;9713;48.140;11.530;2023-02-26T04:36:12;2.67;;;1.43;;
19161;SDS011;9713;48.140;11.530;2023-02-26T04:39:56;3.97;;;1.70;;
19161;SDS011;9713;48.140;11.530;2023-02-26T04:43:38;3.33;;;1.53;;
19161;SDS011;9713;48.140;11.530;2023-02-26T04:47:21;4.20;;;1.70;;
19161;SDS011;9713;48.140;11.530;2023-02-26T04:51:04;4.57;;;1.93;;
19161;SDS011;9713;48.140;11.530;2023-02-26T04:54:47;5.00;;;1.63;;
19161;SDS011;9713;48.140;11.530;2023-02-26T04:58:31;2.83;;;1.67;;
19161;SDS011;9713;48.140;11.530;2023-02-26T05:02:14;5.73;;;1.83;;
19161;SDS011;9713;48.140;11.530;2023-02-26T05:05:56;5.57;;;1.80;;
19161;SDS011;9713;48.140;11.530;2023-02-26T05:09:39;9.73;;;3.80;;
19161;SDS011;9713;48.140;11.530;2023-02-26T05:13:22;5.47;;;1.60;;
19161;SDS011;9713;48.140;11.530;2023-02-26T05:17:06;3.90;;;1.63;;
19161;SDS011;9713;48.140;11.530;2023-02-26T05:20:51;6.07;;;1.80;;
19161;SDS011;9713;48.140;11.530;2023-02-26T05:24:34;2.93;;;1.53;;
19161;SDS011;9713;48.140;11.530;2023-02-26T05:28:18;3.70;;;1.60;;
19161;SDS011;9713;48.140;11.530;2023-02-26T05:32:01;5.27;;;1.77;;
19161;SDS011;9713;48.140;11.530;2023-02-26T05:35:46;4.17;;;2.07;;
19161;SDS011;9713;48.140;11.530;2023-02-26T05:39:29;5.77;;;2.13;;
19161;SDS011;9713;48.140;11.530;2023-02-26T05:43:12;3.77;;;1.77;;
19161;SDS011;9713;48.140;11.530;2023-02-26T05:46:54;4.57;;;1.50;;
19161;SDS011;9713;48.140;11.530;2023-02-26T05:50:37;5.13;;;1.60;;
19161;SDS011;9713;48.140;11.530;2023-02-26T05:54:21;6.13;;;2.10;;
19161;SDS011;9713;48.140;11.530;2023-02-26T05:58:04;2.87;;;1.53;;
19161;SDS011;9713;48.140;11.530;2023-02-26T06:01:47;3.17;;;1.63;;
19161;SDS011;9713;48.140;11.530;2023-02-26T06:05:29;7.10;;;1.83;;
19161;SDS011;9713;48.140;11.530;2023-02-26T06:09:12;3.23;;;1.60;;
19161;SDS011;9713;48.140;11.530;2023-02-26T06:12:56;5.10;;;1.67;;
19161;SDS011;9713;48.140;11.530;2023-02-26T06:16:39;3.70;;;1.83;;
19161;SDS011;9713;48.140;11.530;2023-02-26T06:20:22;4.80;;;1.77;;
19161;SDS011;9713;48.140;11.530;2023-02-26T06:24:05;4.57;;;2.00;;
19161;SDS011;9713;48.140;11.530;2023-02-26T06:27:48;2.83;;;1.50;;
19161;SDS011;9713;48.140;11.530;2023-02-26T06:31:32;3.37;;;1.63;;
19161;SDS011;9713;48.140;11.530;2023-02-26T06:35:15;3.30;;;1.77;;
19161;SDS011;9713;48.140;11.530;2023-02-26T06:38:58;4.13;;;1.77;;
19161;SDS011;9713;48.140;11.530;2023-02-26T06:42:40;7.20;;;1.47;;
19161;SDS011;9713;48.140;11.530;2023-02-26T06:46:23;5.87;;;2.07;;
19161;SDS011;9713;48.140;11.530;2023-02-26T06:50:08;6.87;;;1.83;;
19161;SDS011;9713;48.140;11.530;2023-02-26T06:53:52;4.70;;;1.90;;
19161;SDS011;9713;48.140;11.530;2023-02-26T06:57:35;3.33;;;1.70;;
19161;SDS011;9713;48.140;11.530;2023-02-26T07:01:17;2.50;;;1.70;;
19161;SDS011;9713;48.140;11.530;2023-02-26T07:05:00;3.60;;;2.00;;
19161;SDS011;9713;48.140;11.530;2023-02-26T07:08:45;4.80;;;2.07;;
19161;SDS011;9713;48.140;11.530;2023-02-26T07:12:27;4.30;;;1.80;;
19161;SDS011;9713;48.140;11.530;2023-02-26T07:16:10;4.80;;;1.63;;
19161;SDS011;9713;48.140;11.530;2023-02-26T07:19:53;4.73;;;1.90;;
19161;SDS011;9713;48.140;11.530;2023-02-26T07:23:35;5.63;;;1.97;;
19161;SDS011;9713;48.140;11.530;2023-02-26T07:27:19;5.37;;;1.90;;
19161;SDS011;9713;48.140;11.530;2023-02-26T07:31:02;3.77;;;2.00;;
19161;SDS011;9713;48.140;11.530;2023-02-26T07:34:45;5.73;;;2.30;;
19161;SDS011;9713;48.140;11.530;2023-02-26T07:38:28;3.67;;;1.77;;
19161;SDS011;9713;48.140;11.530;2023-02-26T07:42:13;5.87;;;2.10;;
19161;SDS011;9713;48.140;11.530;2023-02-26T07:45:57;3.87;;;2.00;;
19161;SDS011;9713;48.140;11.530;2023-02-26T07:49:39;5.10;;;1.93;;
19161;SDS011;9713;48.140;11.530;2023-02-26T07:53:22;5.23;;;1.90;;
19161;SDS011;9713;48.140;11.530;2023-02-26T07:57:05;5.07;;;2.07;;
19161;SDS011;9713;48.140;11.530;2023-02-26T08:00:48;6.03;;;2.10;;
19161;SDS011;9713;48.140;11.530;2023-02-26T08:04:34;5.03;;;2.97;;
19161;SDS011;9713;48.140;11.530;2023-02-26T08:08:17;4.17;;;2.23;;
19161;SDS011;9713;48.140;11.530;2023-02-26T08:12:02;4.03;;;2.60;;
19161;SDS011;9713;48.140;11.530;2023-02-26T08:15:46;4.80;;;2.50;;
19161;SDS011;9713;48.140;11.530;2023-02-26T08:19:29;3.97;;;1.90;;
19161;SDS011;9713;48.140;11.530;2023-02-26T08:23:13;3.47;;;2.27;;
19161;SDS011;9713;48.140;11.530;2023-02-26T08:26:55;4.07;;;2.30;;
19161;SDS011;9713;48.140;11.530;2023-02-26T08:30:38;6.33;;;2.10;;
19161;SDS011;9713;48.140;11.530;2023-02-26T08:34:21;6.90;;;2.60;;
19161;SDS011;9713;48.140;11.530;2023-02-26T08:38:04;2.80;;;2.10;;
19161;SDS011;9713;48.140;11.530;2023-02-26T08:41:48;4.53;;;1.87;;
19161;SDS011;9713;48.140;11.530;2023-02-26T08:45:30;2.93;;;2.20;;
19161;SDS011;9713;48.140;11.530;2023-02-26T08:49:13;4.10;;;2.80;;
19161;SDS011;9713;48.140;11.530;2023-02-26T08:52:56;5.60;;;3.23;;
19161;SDS011;9713;48.140;11.530;2023-02-26T08:56:39;4.83;;;2.47;;
19161;SDS011;9713;48.140;11.530;2023-02-26T09:00:23;3.80;;;2.63;;
19161;SDS011;9713;48.140;11.530;2023-02-26T09:04:06;4.47;;;2.70;;
19161;SDS011;9713;48.140;11.530;2023-02-26T09:07:49;5.60;;;2.97;;
19161;SDS011;9713;48.140;11.530;2023-02-26T09:11:33;4.63;;;2.40;;
19161;SDS011;9713;48.140;11.530;2023-02-26T09:15:17;4.33;;;2.53;;
19161;SDS011;9713;48.140;11.530;2023-02-26T09:19:02;4.57;;;2.33;;
19161;SDS011;9713;48.140;11.530;2023-02-26T09:22:44;3.80;;;2.43;;
19161;SDS011;9713;48.140;11.530;2023-02-26T09:26:27;3.93;;;2.43;;
19161;SDS011;9713;48.140;11.530;2023-02-26T09:30:10;5.80;;;3.10;;
19161;SDS011;9713;48.140;11.530;2023-02-26T09:33:54;6.37;;;2.43;;
19161;SDS011;9713;48.140;11.530;2023-02-26T09:37:38;4.07;;;2.63;;
19161;SDS011;9713;48.140;11.530;2023-02-26T09:41:21;4.60;;;2.83;;
19161;SDS011;9713;48.140;11.530;2023-02-26T09:45:06;5.37;;;2.80;;
19161;SDS011;9713;48.140;11.530;2023-02-26T09:48:57;4.10;;;3.10;;
19161;SDS011;9713;48.140;11.530;2023-02-26T09:52:48;4.80;;;3.00;;
19161;SDS011;9713;48.140;11.530;2023-02-26T09:56:34;5.40;;;3.23;;
19161;SDS011;9713;48.140;11.530;2023-02-26T10:00:21;4.73;;;3.73;;
19161;SDS011;9713;48.140;11.530;2023-02-26T10:04:08;4.30;;;2.73;;
19161;SDS011;9713;48.140;11.530;2023-02-26T10:08:03;5.50;;;3.30;;
19161;SDS011;9713;48.140;11.530;2023-02-26T10:11:50;5.23;;;3.43;;
19161;SDS011;9713;48.140;11.530;2023-02-26T10:15:36;6.63;;;3.80;;
19161;SDS011;9713;48.140;11.530;2023-02-26T10:19:22;9.67;;;3.60;;
19161;SDS011;9713;48.140;11.530;2023-02-26T10:23:15;4.17;;;3.33;;
19161;SDS011;9713;48.140;11.530;2023-02-26T10:27:02;5.70;;;3.50;;
19161;SDS011;9713;48.140;11.530;2023-02-26T10:30:48;5.00;;;3.30;;
19161;SDS011;9713;48.140;11.530;2023-02-26T10:34:34;5.23;;;3.73;;
19161;SDS011;9713;48.140;11.530;2023-02-26T10:38:23;4.87;;;3.40;;
19161;SDS011;9713;48.140;11.530;2023-02-26T10:42:09;5.07;;;3.10;;
19161;SDS011;9713;48.140;11.530;2023-02-26T10:46:01;4.83;;;3.23;;
19161;SDS011;9713;48.140;11.530;2023-02-26T10:49:52;6.07;;;3.53;;
19161;SDS011;9713;48.140;11.530;2023-02-26T10:53:38;4.17;;;3.17;;
19161;SDS011;9713;48.140;11.530;2023-02-26T10:57:22;4.37;;;3.47;;
19161;SDS011;9713;48.140;11.530;2023-02-26T11:01:09;4.67;;;3.13;;
19161;SDS011;9713;48.140;11.530;2023-02-26T11:04:55;4.17;;;2.90;;
19161;SDS011;9713;48.140;11.530;2023-02-26T11:08:49;4.17;;;2.80;;
19161;SDS011;9713;48.140;11.530;2023-02-26T11:12:33;4.50;;;2.90;;
19161;SDS011;9713;48.140;11.530;2023-02-26T11:16:18;17.43;;;6.50;;
19161;SDS011;9713;48.140;11.530;2023-02-26T11:20:02;9.50;;;4.10;;
19161;SDS011;9713;48.140;11.530;2023-02-26T11:23:56;5.33;;;3.23;;
19161;SDS011;9713;48.140;11.530;2023-02-26T11:27:40;3.70;;;2.70;;
19161;SDS011;9713;48.140;11.530;2023-02-26T11:31:26;3.67;;;2.77;;
19161;SDS011;9713;48.140;11.530;2023-02-26T11:35:12;4.07;;;2.90;;
19161;SDS011;9713;48.140;11.530;2023-02-26T11:38:57;4.10;;;3.50;;
19161;SDS011;9713;48.140;11.530;2023-02-26T11:42:44;4.57;;;3.40;;
19161;SDS011;9713;48.140;11.530;2023-02-26T11:46:30;5.27;;;3.20;;
19161;SDS011;9713;48.140;11.530;2023-02-26T11:50:13;5.07;;;3.30;;
19161;SDS011;9713;48.140;11.530;2023-02-26T11:53:59;5.07;;;3.67;;
19161;SDS011;9713;48.140;11.530;2023-02-26T11:57:43;3.87;;;2.87;;
19161;SDS011;9713;48.140;11.530;2023-02-26T12:01:26;6.53;;;3.80;;
19161;SDS011;9713;48.140;11.530;2023-02-26T12:05:10;4.13;;;2.90;;
19161;SDS011;9713;48.140;11.530;2023-02-26T12:08:56;4.23;;;2.73;;
19161;SDS011;9713;48.140;11.530;2023-02-26T12:12:44;3.73;;;2.80;;
19161;SDS011;9713;48.140;11.530;2023-02-26T12:16:38;5.57;;;3.00;;
19161;SDS011;9713;48.140;11.530;2023-02-26T12:20:28;3.83;;;2.60;;
19161;SDS011;9713;48.140;11.530;2023-02-26T12:24:23;3.03;;;2.53;;
19161;SDS011;9713;48.140;11.530;2023-02-26T12:28:25;8.43;;;4.43;;
19161;SDS011;9713;48.140;11.530;2023-02-26T12:32:38;3.50;;;2.60;;
19161;SDS011;9713;48.140;11.530;2023-02-26T12:36:30;4.17;;;2.27;;
19161;SDS011;9713;48.140;11.530;2023-02-26T12:40:39;4.57;;;2.50;;
19161;SDS011;9713;48.140;11.530;2023-02-26T12:44:30;2.80;;;2.20;;
19161;SDS011;9713;48.140;11.530;2023-02-26T12:48:31;3.90;;;2.30;;
19161;SDS011;9713;48.140;11.530;2023-02-26T12:52:37;2.70;;;2.10;;
19161;SDS011;9713;48.140;11.530;2023-02-26T12:56:33;2.23;;;2.00;;
19161;SDS011;9713;48.140;11.530;2023-02-26T13:00:29;3.50;;;2.57;;
19161;SDS011;9713;48.140;11.530;2023-02-26T13:04:36;2.40;;;1.97;;
19161;SDS011;9713;48.140;11.530;2023-02-26T13:08:31;2.97;;;2.33;;
19161;SDS011;9713;48.140;11.530;2023-02-26T13:12:23;2.70;;;2.10;;
19161;SDS011;9713;48.140;11.530;2023-02-26T13:16:16;3.07;;;2.20;;
19161;SDS011;9713;48.140;11.530;2023-02-26T13:20:09;2.80;;;1.87;;
19161;SDS011;9713;48.140;11.530;2023-02-26T13:23:53;2.90;;;2.10;;
19161;SDS011;9713;48.140;11.530;2023-02-26T13:27:39;2.30;;;1.90;;
19161;SDS011;9713;48.140;11.530;2023-02-26T13:31:25;4.20;;;2.33;;
19161;SDS011;9713;48.140;11.530;2023-02-26T13:35:16;2.93;;;2.10;;
19161;SDS011;9713;48.140;11.530;2023-02-26T13:39:06;3.27;;;2.20;;
19161;SDS011;9713;48.140;11.530;2023-02-26T13:43:12;2.87;;;1.93;;
19161;SDS011;9713;48.140;11.530;2023-02-26T13:47:13;3.87;;;2.10;;
19161;SDS011;9713;48.140;11.530;2023-02-26T13:51:04;2.93;;;2.00;;
19161;SDS011;9713;48.140;11.530;2023-02-26T13:54:50;2.53;;;1.93;;
19161;SDS011;9713;48.140;11.530;2023-02-26T13:58:36;5.83;;;2.30;;
19161;SDS011;9713;48.140;11.530;2023-02-26T14:02:40;2.90;;;2.13;;
19161;SDS011;9713;48.140;11.530;2023-02-26T14:06:37;3.83;;;2.60;;
19161;SDS011;9713;48.140;11.530;2023-02-26T14:10:23;2.63;;;2.13;;
19161;SDS011;9713;48.140;11.530;2023-02-26T14:14:11;3.33;;;2.40;;
19161;SDS011;9713;48.140;11.530;2023-02-26T14:17:59;3.90;;;2.60;;
19161;SDS011;9713;48.140;11.530;2023-02-26T14:21:47;3.80;;;2.10;;
19161;SDS011;9713;48.140;11.530;2023-02-26T14:25:33;3.77;;;2.17;;
19161;SDS011;9713;48.140;11.530;2023-02-26T14:29:24;2.27;;;1.80;;
19161;SDS011;9713;48.140;11.530;2023-02-26T14:33:18;2.83;;;2.10;;
19161;SDS011;9713;48.140;11.530;2023-02-26T14:37:09;5.00;;;2.30;;
19161;SDS011;9713;48.140;11.530;2023-02-26T14:40:57;2.60;;;2.10;;
19161;SDS011;9713;48.140;11.530;2023-02-26T14:44:43;3.77;;;2.40;;
19161;SDS011;9713;48.140;11.530;2023-02-26T14:48:27;2.93;;;2.10;;
19161;SDS011;9713;48.140;11.530;2023-02-26T14:52:14;4.20;;;2.73;;
19161;SDS011;9713;48.140;11.530;2023-02-26T14:56:16;3.47;;;2.17;;
19161;SDS011;9713;48.140;11.530;2023-02-26T15:00:07;2.43;;;2.10;;
19161;SDS011;9713;48.140;11.530;2023-02-26T15:04:19;2.83;;;1.87;;
19161;SDS011;9713;48.140;11.530;2023-02-26T15:08:17;3.13;;;2.20;;
19161;SDS011;9713;48.140;11.530;2023-02-26T15:12:17;2.40;;;2.03;;
19161;SDS011;9713;48.140;11.530;2023-02-26T15:16:10;2.20;;;1.90;;
19161;SDS011;9713;48.140;11.530;2023-02-26T15:20:06;3.47;;;2.40;;
19161;SDS011;9713;48.140;11.530;2023-02-26T15:23:52;3.83;;;2.50;;
19161;SDS011;9713;48.140;11.530;2023-02-26T15:27:36;2.97;;;2.00;;
19161;SDS011;9713;48.140;11.530;2023-02-26T15:31:26;3.27;;;2.20;;
19161;SDS011;9713;48.140;11.530;2023-02-26T15:35:13;2.67;;;1.70;;
19161;SDS011;9713;48.140;11.530;2023-02-26T15:38:57;2.97;;;1.90;;
19161;SDS011;9713;48.140;11.530;2023-02-26T15:42:42;2.70;;;1.60;;
19161;SDS011;9713;48.140;11.530;2023-02-26T15:46:28;3.73;;;2.30;;
19161;SDS011;9713;48.140;11.530;2023-02-26T15:50:15;4.80;;;2.20;;
19161;SDS011;9713;48.140;11.530;2023-02-26T15:53:58;2.37;;;1.97;;
19161;SDS011;9713;48.140;11.530;2023-02-26T15:57:43;4.00;;;1.93;;
19161;SDS011;9713;48.140;11.530;2023-02-26T16:01:28;3.17;;;2.40;;
19161;SDS011;9713;48.140;11.530;2023-02-26T16:05:11;3.80;;;2.27;;
19161;SDS011;9713;48.140;11.530;2023-02-26T16:08:55;2.60;;;2.03;;
19161;SDS011;9713;48.140;11.530;2023-02-26T16:12:39;3.83;;;2.00;;
19161;SDS011;9713;48.140;11.530;2023-02-26T16:16:24;5.03;;;2.27;;
19161;SDS011;9713;48.140;11.530;2023-02-26T16:20:13;2.60;;;1.97;;
19161;SDS011;9713;48.140;11.530;2023-02-26T16:23:57;3.50;;;2.40;;
19161;SDS011;9713;48.140;11.530;2023-02-26T16:27:40;5.40;;;3.10;;
19161;SDS011;9713;48.140;11.530;2023-02-26T16:31:24;5.87;;;2.70;;
19161;SDS011;9713;48.140;11.530;2023-02-26T16:35:09;4.27;;;2.80;;
19161;SDS011;9713;48.140;11.530;2023-02-26T16:38:58;4.23;;;2.60;;
19161;SDS011;9713;48.140;11.530;2023-02-26T16:42:43;3.17;;;1.70;;
19161;SDS011;9713;48.140;11.530;2023-02-26T16:46:30;1.73;;;1.40;;
19161;SDS011;9713;48.140;11.530;2023-02-26T16:50:17;3.67;;;2.10;;
19161;SDS011;9713;48.140;11.530;2023-02-26T16:54:04;2.27;;;1.57;;
19161;SDS011;9713;48.140;11.530;2023-02-26T16:57:48;3.50;;;2.00;;
19161;SDS011;9713;48.140;11.530;2023-02-26T17:01:33;2.87;;;1.90;;
19161;SDS011;9713;48.140;11.530;2023-02-26T17:05:20;3.13;;;2.07;;
19161;SDS011;9713;48.140;11.530;2023-02-26T17:09:14;4.30;;;2.30;;
19161;SDS011;9713;48.140;11.530;2023-02-26T17:13:11;5.33;;;2.30;;
19161;SDS011;9713;48.140;11.530;2023-02-26T17:16:56;3.40;;;2.10;;
19161;SDS011;9713;48.140;11.530;2023-02-26T17:20:39;4.57;;;2.50;;
19161;SDS011;9713;48.140;11.530;2023-02-26T17:24:25;3.03;;;2.00;;
19161;SDS011;9713;48.140;11.530;2023-02-26T17:28:13;3.20;;;2.30;;
19161;SDS011;9713;48.140;11.530;2023-02-26T17:32:00;4.00;;;2.53;;
19161;SDS011;9713;48.140;11.530;2023-02-26T17:35:43;3.43;;;2.77;;
19161;SDS011;9713;48.140;11.530;2023-02-26T17:39:27;4.13;;;2.27;;
19161;SDS011;9713;48.140;11.530;2023-02-26T17:43:12;4.03;;;2.10;;
19161;SDS011;9713;48.140;11.530;2023-02-26T17:46:54;4.63;;;2.47;;
19161;SDS011;9713;48.140;11.530;2023-02-26T17:50:39;5.30;;;2.20;;
19161;SDS011;9713;48.140;11.530;2023-02-26T17:54:24;3.37;;;2.10;;
19161;SDS011;9713;48.140;11.530;2023-02-26T17:58:12;3.27;;;2.03;;
19161;SDS011;9713;48.140;11.530;2023-02-26T18:01:56;2.77;;;1.90;;
19161;SDS011;9713;48.140;11.530;2023-02-26T18:05:38;3.50;;;2.23;;
19161;SDS011;9713;48.140;11.530;2023-02-26T18:09:22;3.17;;;2.10;;
19161;SDS011;9713;48.140;11.530;2023-02-26T18:13:04;5.90;;;2.53;;
19161;SDS011;9713;48.140;11.530;2023-02-26T18:16:48;4.23;;;2.30;;
19161;SDS011;9713;48.140;11.530;2023-02-26T18:20:31;2.83;;;1.97;;
19161;SDS011;9713;48.140;11.530;2023-02-26T18:24:14;4.77;;;2.10;;
19161;SDS011;9713;48.140;11.530;2023-02-26T18:27:56;3.27;;;2.20;;
19161;SDS011;9713;48.140;11.530;2023-02-26T18:31:40;3.00;;;2.07;;
19161;SDS011;9713;48.140;11.530;2023-02-26T18:35:25;3.57;;;2.00;;
19161;SDS011;9713;48.140;11.530;2023-02-26T18:39:10;3.67;;;2.20;;
19161;SDS011;9713;48.140;11.530;2023-02-26T18:42:55;4.53;;;2.17;;
19161;SDS011;9713;48.140;11.530;2023-02-26T18:46:38;7.57;;;2.83;;
19161;SDS011;9713;48.140;11.530;2023-02-26T18:50:21;5.17;;;2.50;;
19161;SDS011;9713;48.140;11.530;2023-02-26T18:54:05;3.33;;;2.47;;
19161;SDS011;9713;48.140;11.530;2023-02-26T18:57:48;3.83;;;2.73;;
19161;SDS011;9713;48.140;11.530;2023-02-26T19:01:33;5.47;;;3.47;;
19161;SDS011;9713;48.140;11.530;2023-02-26T19:05:16;5.60;;;3.30;;
19161;SDS011;9713;48.140;11.530;2023-02-26T19:09:03;5.53;;;3.10;;
19161;SDS011;9713;48.140;11.530;2023-02-26T19:12:47;5.23;;;3.10;;
19161;SDS011;9713;48.140;11.530;2023-02-26T19:16:31;6.37;;;3.30;;
19161;SDS011;9713;48.140;11.530;2023-02-26T19:20:18;4.73;;;3.10;;
19161;SDS011;9713;48.140;11.530;2023-02-26T19:24:01;5.57;;;3.23;;
19161;SDS011;9713;48.140;11.530;2023-02-26T19:27:44;4.50;;;3.27;;
19161;SDS011;9713;48.140;11.530;2023-02-26T19:31:28;8.30;;;3.23;;
19161;SDS011;9713;48.140;11.530;2023-02-26T19:35:11;6.20;;;3.50;;
19161;SDS011;9713;48.140;11.530;2023-02-26T19:38:54;7.23;;;4.00;;
19161;SDS011;9713;48.140;11.530;2023-02-26T19:42:37;5.80;;;3.57;;
19161;SDS011;9713;48.140;11.530;2023-02-26T19:46:20;5.80;;;3.70;;
19161;SDS011;9713;48.140;11.530;2023-02-26T19:50:05;5.13;;;3.43;;
19161;SDS011;9713;48.140;11.530;2023-02-26T19:53:49;8.00;;;4.00;;
19161;SDS011;9713;48.140;11.530;2023-02-26T19:57:31;5.90;;;3.67;;
19161;SDS011;9713;48.140;11.530;2023-02-26T20:01:14;5.90;;;3.83;;
19161;SDS011;9713;48.140;11.530;2023-02-26T20:04:58;5.87;;;3.60;;
19161;SDS011;9713;48.140;11.530;2023-02-26T20:08:42;6.33;;;4.00;;
19161;SDS011;9713;48.140;11.530;2023-02-26T20:12:25;7.23;;;4.03;;
19161;SDS011;9713;48.140;11.530;2023-02-26T20:16:08;6.57;;;4.00;;
19161;SDS011;9713;48.140;11.530;2023-02-26T20:19:51;5.43;;;3.37;;
19161;SDS011;9713;48.140;11.530;2023-02-26T20:23:34;6.57;;;4.20;;
19161;SDS011;9713;48.140;11.530;2023-02-26T20:27:19;6.17;;;4.07;;
19161;SDS011;9713;48.140;11.530;2023-02-26T20:31:02;5.90;;;3.77;;
19161;SDS011;9713;48.140;11.530;2023-02-26T20:34:45;7.27;;;3.87;;
19161;SDS011;9713;48.140;11.530;2023-02-26T20:38:28;5.37;;;3.63;;
19161;SDS011;9713;48.140;11.530;2023-02-26T20:42:11;6.27;;;3.70;;
19161;SDS011;9713;48.140;11.530;2023-02-26T20:45:55;7.60;;;3.80;;
19161;SDS011;9713;48.140;11.530;2023-02-26T20:49:38;5.33;;;3.70;;
19161;SDS011;9713;48.140;11.530;2023-02-26T20:53:20;6.17;;;3.67;;
19161;SDS011;9713;48.140;11.530;2023-02-26T20:57:03;5.47;;;3.90;;
19161;SDS011;9713;48.140;11.530;2023-02-26T21:00:45;7.47;;;4.40;;
19161;SDS011;9713;48.140;11.530;2023-02-26T21:04:30;6.57;;;4.13;;
19161;SDS011;9713;48.140;11.530;2023-02-26T21:08:12;5.20;;;3.90;;
19161;SDS011;9713;48.140;11.530;2023-02-26T21:11:55;7.73;;;4.40;;
19161;SDS011;9713;48.140;11.530;2023-02-26T21:15:38;7.77;;;4.60;;
19161;SDS011;9713;48.140;11.530;2023-02-26T21:19:20;8.17;;;4.13;;
19161;SDS011;9713;48.140;11.530;2023-02-26T21:23:08;7.23;;;4.33;;
19161;SDS011;9713;48.140;11.530;2023-02-26T21:26:50;7.23;;;4.23;;
19161;SDS011;9713;48.140;11.530;2023-02-26T21:30:33;9.97;;;5.10;;
19161;SDS011;9713;48.140;11.530;2023-02-26T21:34:16;11.33;;;5.87;;
19161;SDS011;9713;48.140;11.530;2023-02-26T21:38:15;7.93;;;4.30;;
19161;SDS011;9713;48.140;11.530;2023-02-26T21:41:59;5.47;;;3.80;;
19161;SDS011;9713;48.140;11.530;2023-02-26T21:45:43;8.00;;;4.17;;
19161;SDS011;9713;48.140;11.530;2023-02-26T21:49:29;6.50;;;3.87;;
19161;SDS011;9713;48.140;11.530;2023-02-26T21:53:12;7.60;;;4.20;;
19161;SDS011;9713;48.140;11.530;2023-02-26T21:56:56;5.87;;;4.10;;
19161;SDS011;9713;48.140;11.530;2023-02-26T22:00:39;6.27;;;3.70;;
19161;SDS011;9713;48.140;11.530;2023-02-26T22:04:22;7.60;;;4.10;;
19161;SDS011;9713;48.140;11.530;2023-02-26T22:08:04;6.37;;;4.00;;
19161;SDS011;9713;48.140;11.530;2023-02-26T22:11:47;6.43;;;3.40;;
19161;SDS011;9713;48.140;11.530;2023-02-26T22:15:31;7.20;;;3.93;;
19161;SDS011;9713;48.140;11.530;2023-02-26T22:19:14;6.00;;;4.07;;
19161;SDS011;9713;48.140;11.530;2023-02-26T22:22:56;6.03;;;3.77;;
19161;SDS011;9713;48.140;11.530;2023-02-26T22:26:39;6.10;;;3.87;;
19161;SDS011;9713;48.140;11.530;2023-02-26T22:30:22;5.37;;;3.60;;
19161;SDS011;9713;48.140;11.530;2023-02-26T22:34:07;6.20;;;4.00;;
19161;SDS011;9713;48.140;11.530;2023-02-26T22:37:50;7.00;;;4.10;;
19161;SDS011;9713;48.140;11.530;2023-02-26T22:41:32;6.60;;;4.10;;
19161;SDS011;9713;48.140;11.530;2023-02-26T22:45:16;7.50;;;4.00;;